Check out our new PWSWeather beta!
PWSweather.com
Personal Weather Stations
Station Observations
GRD01
Warsaw, LesznoPL 05-084

WarsawLesznoPL 05-084

Lat: 52.257404, Lon: 20.564847

Elevation: 298

Station Type: WH3080

http://pogoda.kampinos.waw.pl

High Low Average
Temperature 82.2°F27.9°C 63.9°F17.7°C 72.9°F22.7°C
Dew Point 65.9°F18.8°C 58.3°F14.6°C 61.7°F16.5°C
Winds 12.1 mph 19.5 kmh Calm Calm 3.0 mph W4.8 kmh W
Wind Gusts 18.3 mph29.5 kmh 0.7 mph1.1 kmh 7.0 mph11.3 kmh
Humidity 91% 48% 69%
Pressure 30.55 in1034.5 mb 30.29 in1025.7 mb -
Precipitation 0.05 in1.3 mm - -
Hour Temp Dew Point Humidity Winds Wind Gusts Pressure Precip Precip Rate Daily Precip Total
12:00 AM 68.9°F20.5°C 58.7°F14.8°C 70% 2.2 mph SSE3.5 kmh SSE 4.5 mph7.2 kmh 30.29 in1025.7 mb 0.00 in0.0 mm 0.00 in0.0 mm 0.00 in0.0 mm
12:05 AM 68.9°F20.5°C 58.7°F14.8°C 70% 3.1 mph S5.0 kmh S 4.5 mph7.2 kmh 29.84 in1010.5 mb 0.00 in0.0 mm 0.00 in0.0 mm 0.00 in0.0 mm
12:15 AM 69.3°F20.7°C 59.1°F15.1°C 70% 2.2 mph S3.5 kmh S 5.4 mph8.7 kmh 30.29 in1025.7 mb 0.00 in0.0 mm 0.00 in0.0 mm 0.00 in0.0 mm
12:30 AM 70.2°F21.2°C 59.9°F15.5°C 70% 0.7 mph S1.1 kmh S 5.4 mph8.7 kmh 30.30 in1026.1 mb 0.00 in0.0 mm 0.00 in0.0 mm 0.00 in0.0 mm
12:35 AM 70.0°F21.1°C 59.7°F15.4°C 70% 3.8 mph SE6.1 kmh SE 5.4 mph8.7 kmh 29.86 in1011.2 mb 0.00 in0.0 mm 0.00 in0.0 mm 0.00 in0.0 mm
12:45 AM 70.7°F21.5°C 60.0°F15.6°C 69% 4.5 mph NW7.2 kmh NW 18.3 mph29.5 kmh 30.30 in1026.1 mb 0.00 in0.0 mm 0.00 in0.0 mm 0.00 in0.0 mm
01:00 AM 71.6°F22.0°C 60.5°F15.8°C 68% 1.6 mph W2.6 kmh W 14.5 mph23.3 kmh 30.32 in1026.8 mb 0.00 in0.0 mm 0.00 in0.0 mm 0.00 in0.0 mm
01:05 AM 71.6°F22.0°C 60.5°F15.8°C 68% 1.6 mph SW2.6 kmh SW 2.2 mph3.5 kmh 29.88 in1011.9 mb 0.00 in0.0 mm 0.00 in0.0 mm 0.00 in0.0 mm
01:15 AM 71.6°F22.0°C 59.6°F15.3°C 66% Calm Calm 3.8 mph6.1 kmh 30.32 in1026.8 mb 0.00 in0.0 mm 0.00 in0.0 mm 0.00 in0.0 mm
01:30 AM 71.1°F21.7°C 60.0°F15.6°C 68% 2.2 mph SW3.5 kmh SW 3.8 mph6.1 kmh 30.31 in1026.4 mb 0.00 in0.0 mm 0.00 in0.0 mm 0.00 in0.0 mm
01:35 AM 71.1°F21.7°C 60.0°F15.6°C 68% 2.2 mph SW3.5 kmh SW 3.1 mph5.0 kmh 29.87 in1011.5 mb 0.00 in0.0 mm 0.00 in0.0 mm 0.00 in0.0 mm
01:45 AM 69.8°F21.0°C 59.6°F15.3°C 70% 1.6 mph SW2.6 kmh SW 3.1 mph5.0 kmh 30.31 in1026.4 mb 0.00 in0.0 mm 0.00 in0.0 mm 0.00 in0.0 mm
02:00 AM 68.7°F20.4°C 58.9°F14.9°C 71% 0.7 mph SW1.1 kmh SW 3.1 mph5.0 kmh 30.31 in1026.4 mb 0.00 in0.0 mm 0.00 in0.0 mm 0.00 in0.0 mm
02:05 AM 68.9°F20.5°C 58.7°F14.8°C 70% Calm Calm 0.7 mph1.1 kmh 29.87 in1011.5 mb 0.00 in0.0 mm 0.00 in0.0 mm 0.00 in0.0 mm
02:15 AM 68.0°F20.0°C 58.6°F14.8°C 72% 1.6 mph SW2.6 kmh SW 3.8 mph6.1 kmh 30.32 in1026.8 mb 0.00 in0.0 mm 0.00 in0.0 mm 0.00 in0.0 mm
02:30 AM 67.3°F19.6°C 58.3°F14.6°C 73% 1.6 mph SW2.6 kmh SW 3.8 mph6.1 kmh 30.32 in1026.8 mb 0.00 in0.0 mm 0.00 in0.0 mm 0.00 in0.0 mm
02:35 AM 67.3°F19.6°C 58.3°F14.6°C 73% 2.2 mph SW3.5 kmh SW 3.1 mph5.0 kmh 29.88 in1011.9 mb 0.00 in0.0 mm 0.00 in0.0 mm 0.00 in0.0 mm
02:45 AM 67.6°F19.8°C 58.7°F14.8°C 73% 4.5 mph S7.2 kmh S 6.9 mph11.1 kmh 30.33 in1027.1 mb 0.00 in0.0 mm 0.00 in0.0 mm 0.00 in0.0 mm
03:00 AM 68.5°F20.3°C 59.2°F15.1°C 72% 1.6 mph S2.6 kmh S 6.0 mph9.7 kmh 30.34 in1027.4 mb 0.00 in0.0 mm 0.00 in0.0 mm 0.00 in0.0 mm
03:05 AM 68.5°F20.3°C 59.2°F15.1°C 72% 1.6 mph S2.6 kmh S 3.8 mph6.1 kmh 29.90 in1012.5 mb 0.00 in0.0 mm 0.00 in0.0 mm 0.00 in0.0 mm
03:15 AM 69.1°F20.6°C 59.7°F15.4°C 72% 0.7 mph SSW1.1 kmh SSW 7.6 mph12.2 kmh 30.33 in1027.1 mb 0.00 in0.0 mm 0.00 in0.0 mm 0.00 in0.0 mm
03:30 AM 69.8°F21.0°C 60.0°F15.6°C 71% 2.2 mph SW3.5 kmh SW 8.3 mph13.4 kmh 30.34 in1027.4 mb 0.00 in0.0 mm 0.00 in0.0 mm 0.00 in0.0 mm
03:35 AM 69.8°F21.0°C 60.0°F15.6°C 71% 3.1 mph SW5.0 kmh SW 4.5 mph7.2 kmh 29.89 in1012.2 mb 0.00 in0.0 mm 0.00 in0.0 mm 0.00 in0.0 mm
03:45 AM 70.3°F21.3°C 60.1°F15.6°C 70% 0.7 mph NW1.1 kmh NW 3.8 mph6.1 kmh 30.31 in1026.4 mb 0.00 in0.0 mm 0.00 in0.0 mm 0.00 in0.0 mm
04:00 AM 70.0°F21.1°C 60.1°F15.6°C 71% 0.7 mph SW1.1 kmh SW 3.1 mph5.0 kmh 30.31 in1026.4 mb 0.00 in0.0 mm 0.00 in0.0 mm 0.00 in0.0 mm
04:05 AM 70.2°F21.2°C 60.3°F15.7°C 71% 0.7 mph SW1.1 kmh SW 1.6 mph2.6 kmh 29.87 in1011.5 mb 0.00 in0.0 mm 0.00 in0.0 mm 0.00 in0.0 mm
04:15 AM 69.6°F20.9°C 59.8°F15.4°C 71% 2.2 mph SSW3.5 kmh SSW 4.5 mph7.2 kmh 30.30 in1026.1 mb 0.00 in0.0 mm 0.00 in0.0 mm 0.00 in0.0 mm
04:30 AM 69.4°F20.8°C 59.6°F15.3°C 71% 0.7 mph S1.1 kmh S 4.5 mph7.2 kmh 30.32 in1026.8 mb 0.00 in0.0 mm 0.00 in0.0 mm 0.00 in0.0 mm
04:35 AM 69.4°F20.8°C 59.6°F15.3°C 71% 0.7 mph S1.1 kmh S 1.6 mph2.6 kmh 29.87 in1011.5 mb 0.00 in0.0 mm 0.00 in0.0 mm 0.00 in0.0 mm
04:45 AM 69.1°F20.6°C 59.7°F15.4°C 72% 0.7 mph SE1.1 kmh SE 2.2 mph3.5 kmh 30.32 in1026.8 mb 0.00 in0.0 mm 0.00 in0.0 mm 0.00 in0.0 mm
05:00 AM 68.7°F20.4°C 59.7°F15.4°C 73% 0.7 mph SE1.1 kmh SE 2.2 mph3.5 kmh 30.32 in1026.8 mb 0.00 in0.0 mm 0.00 in0.0 mm 0.00 in0.0 mm
05:05 AM 68.7°F20.4°C 59.3°F15.2°C 72% 1.6 mph SE2.6 kmh SE 2.2 mph3.5 kmh 29.88 in1011.9 mb 0.00 in0.0 mm 0.00 in0.0 mm 0.00 in0.0 mm
05:15 AM 68.4°F20.2°C 59.4°F15.2°C 73% 2.2 mph S3.5 kmh S 3.8 mph6.1 kmh 30.34 in1027.4 mb 0.00 in0.0 mm 0.00 in0.0 mm 0.00 in0.0 mm
05:30 AM 68.4°F20.2°C 59.4°F15.2°C 73% 3.8 mph S6.1 kmh S 5.4 mph8.7 kmh 30.35 in1027.8 mb 0.00 in0.0 mm 0.00 in0.0 mm 0.00 in0.0 mm
05:35 AM 68.4°F20.2°C 59.4°F15.2°C 73% 3.1 mph SW5.0 kmh SW 3.8 mph6.1 kmh 29.91 in1012.9 mb 0.00 in0.0 mm 0.00 in0.0 mm 0.00 in0.0 mm
05:45 AM 68.4°F20.2°C 59.7°F15.4°C 74% 0.7 mph S1.1 kmh S 3.8 mph6.1 kmh 30.36 in1028.1 mb 0.00 in0.0 mm 0.00 in0.0 mm 0.00 in0.0 mm
06:00 AM 69.4°F20.8°C 60.4°F15.8°C 73% 3.8 mph S6.1 kmh S 6.9 mph11.1 kmh 30.37 in1028.4 mb 0.00 in0.0 mm 0.00 in0.0 mm 0.00 in0.0 mm
06:05 AM 69.3°F20.7°C 60.2°F15.7°C 73% 1.6 mph S2.6 kmh S 2.2 mph3.5 kmh 29.92 in1013.2 mb 0.00 in0.0 mm 0.00 in0.0 mm 0.00 in0.0 mm
06:15 AM 70.5°F21.4°C 61.1°F16.2°C 72% 0.7 mph SSW1.1 kmh SSW 5.4 mph8.7 kmh 30.36 in1028.1 mb 0.00 in0.0 mm 0.00 in0.0 mm 0.00 in0.0 mm
06:30 AM 71.6°F22.0°C 61.7°F16.5°C 71% 5.4 mph SSW8.7 kmh SSW 7.6 mph12.2 kmh 30.38 in1028.8 mb 0.00 in0.0 mm 0.00 in0.0 mm 0.00 in0.0 mm
06:35 AM 71.4°F21.9°C 61.5°F16.4°C 71% 4.5 mph SW7.2 kmh SW 6.0 mph9.7 kmh 29.93 in1013.5 mb 0.00 in0.0 mm 0.00 in0.0 mm 0.00 in0.0 mm
06:45 AM 72.0°F22.2°C 61.6°F16.4°C 70% 3.8 mph S6.1 kmh S 9.8 mph15.8 kmh 30.39 in1029.1 mb 0.00 in0.0 mm 0.00 in0.0 mm 0.00 in0.0 mm
07:00 AM 72.3°F22.4°C 61.6°F16.4°C 69% 4.5 mph WSW7.2 kmh WSW 6.9 mph11.1 kmh 30.39 in1029.1 mb 0.00 in0.0 mm 0.00 in0.0 mm 0.00 in0.0 mm
07:05 AM 72.3°F22.4°C 61.6°F16.4°C 69% 4.5 mph W7.2 kmh W 6.0 mph9.7 kmh 29.95 in1014.2 mb 0.00 in0.0 mm 0.00 in0.0 mm 0.00 in0.0 mm
07:15 AM 73.8°F23.2°C 60.8°F16.0°C 64% 6.9 mph WNW11.1 kmh WNW 11.4 mph18.3 kmh 30.40 in1029.5 mb 0.00 in0.0 mm 0.00 in0.0 mm 0.00 in0.0 mm
07:30 AM 74.7°F23.7°C 61.2°F16.2°C 63% 5.4 mph WNW8.7 kmh WNW 11.4 mph18.3 kmh 30.40 in1029.5 mb 0.00 in0.0 mm 0.00 in0.0 mm 0.00 in0.0 mm
07:35 AM 74.7°F23.7°C 61.7°F16.5°C 64% 3.8 mph NW6.1 kmh NW 5.4 mph8.7 kmh 29.95 in1014.2 mb 0.00 in0.0 mm 0.00 in0.0 mm 0.00 in0.0 mm
07:45 AM 74.7°F23.7°C 61.2°F16.2°C 63% 4.5 mph WNW7.2 kmh WNW 12.1 mph19.5 kmh 30.40 in1029.5 mb 0.00 in0.0 mm 0.00 in0.0 mm 0.00 in0.0 mm
08:00 AM 75.2°F24.0°C 61.7°F16.5°C 63% 6.9 mph WSW11.1 kmh WSW 12.1 mph19.5 kmh 30.40 in1029.5 mb 0.00 in0.0 mm 0.00 in0.0 mm 0.00 in0.0 mm
08:05 AM 75.2°F24.0°C 61.7°F16.5°C 63% 6.0 mph SW9.7 kmh SW 7.6 mph12.2 kmh 29.95 in1014.2 mb 0.00 in0.0 mm 0.00 in0.0 mm 0.00 in0.0 mm
08:15 AM 75.2°F24.0°C 61.7°F16.5°C 63% 6.0 mph NW9.7 kmh NW 9.2 mph14.8 kmh 30.40 in1029.5 mb 0.00 in0.0 mm 0.00 in0.0 mm 0.00 in0.0 mm
08:30 AM 75.9°F24.4°C 62.0°F16.7°C 62% 2.2 mph W3.5 kmh W 7.6 mph12.2 kmh 30.40 in1029.5 mb 0.00 in0.0 mm 0.00 in0.0 mm 0.00 in0.0 mm
08:35 AM 75.9°F24.4°C 62.0°F16.7°C 62% 3.1 mph W5.0 kmh W 5.4 mph8.7 kmh 29.95 in1014.2 mb 0.00 in0.0 mm 0.00 in0.0 mm 0.00 in0.0 mm
08:45 AM 76.1°F24.5°C 62.1°F16.7°C 62% 6.9 mph WSW11.1 kmh WSW 9.8 mph15.8 kmh 30.41 in1029.8 mb 0.00 in0.0 mm 0.00 in0.0 mm 0.00 in0.0 mm
09:00 AM 76.5°F24.7°C 62.5°F16.9°C 62% 5.4 mph SW8.7 kmh SW 13.0 mph20.9 kmh 30.41 in1029.8 mb 0.00 in0.0 mm 0.00 in0.0 mm 0.00 in0.0 mm
09:05 AM 76.5°F24.7°C 62.5°F16.9°C 62% 6.9 mph SW11.1 kmh SW 10.7 mph17.2 kmh 29.96 in1014.6 mb 0.00 in0.0 mm 0.00 in0.0 mm 0.00 in0.0 mm
09:15 AM 77.5°F25.3°C 63.0°F17.2°C 61% 1.6 mph SW2.6 kmh SW 6.0 mph9.7 kmh 30.41 in1029.8 mb 0.00 in0.0 mm 0.00 in0.0 mm 0.00 in0.0 mm
09:30 AM 77.9°F25.5°C 62.9°F17.2°C 60% 8.3 mph S13.4 kmh S 11.4 mph18.3 kmh 30.42 in1030.1 mb 0.00 in0.0 mm 0.00 in0.0 mm 0.00 in0.0 mm
09:35 AM 77.7°F25.4°C 62.7°F17.1°C 60% 5.4 mph SE8.7 kmh SE 7.6 mph12.2 kmh 29.98 in1015.2 mb 0.00 in0.0 mm 0.00 in0.0 mm 0.00 in0.0 mm
09:45 AM 78.8°F26.0°C 63.7°F17.6°C 60% 2.2 mph SW3.5 kmh SW 13.6 mph21.9 kmh 30.43 in1030.5 mb 0.00 in0.0 mm 0.00 in0.0 mm 0.00 in0.0 mm
10:00 AM 78.4°F25.8°C 62.4°F16.9°C 58% 3.8 mph SW6.1 kmh SW 9.2 mph14.8 kmh 30.43 in1030.5 mb 0.00 in0.0 mm 0.00 in0.0 mm 0.00 in0.0 mm
10:05 AM 78.4°F25.8°C 62.4°F16.9°C 58% 3.8 mph SW6.1 kmh SW 6.0 mph9.7 kmh 29.98 in1015.2 mb 0.00 in0.0 mm 0.00 in0.0 mm 0.00 in0.0 mm
10:15 AM 78.4°F25.8°C 62.4°F16.9°C 58% 8.3 mph SW13.4 kmh SW 9.8 mph15.8 kmh 30.43 in1030.5 mb 0.00 in0.0 mm 0.00 in0.0 mm 0.00 in0.0 mm
10:30 AM 79.7°F26.5°C 62.1°F16.7°C 55% 3.1 mph SW5.0 kmh SW 12.1 mph19.5 kmh 30.43 in1030.5 mb 0.00 in0.0 mm 0.00 in0.0 mm 0.00 in0.0 mm
10:35 AM 79.7°F26.5°C 62.1°F16.7°C 55% 10.7 mph N17.2 kmh N 12.1 mph19.5 kmh 29.99 in1015.6 mb 0.00 in0.0 mm 0.00 in0.0 mm 0.00 in0.0 mm
10:45 AM 80.2°F26.8°C 62.1°F16.7°C 54% 4.5 mph SW7.2 kmh SW 11.4 mph18.3 kmh 30.43 in1030.5 mb 0.00 in0.0 mm 0.00 in0.0 mm 0.00 in0.0 mm
11:00 AM 80.8°F27.1°C 62.6°F17.0°C 54% 6.0 mph SSW9.7 kmh SSW 10.7 mph17.2 kmh 30.43 in1030.5 mb 0.00 in0.0 mm 0.00 in0.0 mm 0.00 in0.0 mm
11:05 AM 80.6°F27.0°C 62.4°F16.9°C 54% 6.0 mph SW9.7 kmh SW 7.6 mph12.2 kmh 29.99 in1015.6 mb 0.00 in0.0 mm 0.00 in0.0 mm 0.00 in0.0 mm
11:15 AM 81.0°F27.2°C 62.7°F17.1°C 54% 4.5 mph W7.2 kmh W 13.0 mph20.9 kmh 30.44 in1030.8 mb 0.00 in0.0 mm 0.00 in0.0 mm 0.00 in0.0 mm
11:30 AM 81.1°F27.3°C 62.9°F17.2°C 54% 9.8 mph NW15.8 kmh NW 13.0 mph20.9 kmh 30.44 in1030.8 mb 0.00 in0.0 mm 0.00 in0.0 mm 0.00 in0.0 mm
11:35 AM 81.1°F27.3°C 62.9°F17.2°C 54% 8.3 mph W13.4 kmh W 12.1 mph19.5 kmh 29.99 in1015.6 mb 0.00 in0.0 mm 0.00 in0.0 mm 0.00 in0.0 mm
11:45 AM 81.3°F27.4°C 62.6°F17.0°C 53% 5.4 mph WSW8.7 kmh WSW 13.0 mph20.9 kmh 30.45 in1031.2 mb 0.00 in0.0 mm 0.00 in0.0 mm 0.00 in0.0 mm
12:00 PM 81.7°F27.6°C 61.2°F16.2°C 50% 6.0 mph WNW9.7 kmh WNW 15.9 mph25.6 kmh 30.44 in1030.8 mb 0.00 in0.0 mm 0.00 in0.0 mm 0.00 in0.0 mm
12:05 PM 81.7°F27.6°C 61.2°F16.2°C 50% 12.1 mph W19.5 kmh W 15.9 mph25.6 kmh 30.00 in1015.9 mb 0.00 in0.0 mm 0.00 in0.0 mm 0.00 in0.0 mm
12:15 PM 81.9°F27.7°C 61.4°F16.3°C 50% 6.0 mph W9.7 kmh W 12.1 mph19.5 kmh 30.45 in1031.2 mb 0.00 in0.0 mm 0.00 in0.0 mm 0.00 in0.0 mm
12:30 PM 81.5°F27.5°C 61.1°F16.2°C 50% 6.0 mph WSW9.7 kmh WSW 13.0 mph20.9 kmh 30.45 in1031.2 mb 0.00 in0.0 mm 0.00 in0.0 mm 0.00 in0.0 mm
12:35 PM 81.5°F27.5°C 61.1°F16.2°C 50% 4.5 mph W7.2 kmh W 5.4 mph8.7 kmh 30.01 in1016.3 mb 0.00 in0.0 mm 0.00 in0.0 mm 0.00 in0.0 mm
12:45 PM 81.7°F27.6°C 60.7°F15.9°C 49% 4.5 mph WNW7.2 kmh WNW 11.4 mph18.3 kmh 30.45 in1031.2 mb 0.00 in0.0 mm 0.00 in0.0 mm 0.00 in0.0 mm
01:00 PM 82.2°F27.9°C 61.2°F16.2°C 49% 6.0 mph NW9.7 kmh NW 11.4 mph18.3 kmh 30.44 in1030.8 mb 0.00 in0.0 mm 0.00 in0.0 mm 0.00 in0.0 mm
01:05 PM 82.2°F27.9°C 61.2°F16.2°C 49% 6.0 mph NW9.7 kmh NW 8.3 mph13.4 kmh 30.00 in1015.9 mb 0.00 in0.0 mm 0.00 in0.0 mm 0.00 in0.0 mm
01:15 PM 82.2°F27.9°C 61.2°F16.2°C 49% 10.7 mph N17.2 kmh N 15.9 mph25.6 kmh 30.45 in1031.2 mb 0.00 in0.0 mm 0.00 in0.0 mm 0.00 in0.0 mm
01:30 PM 81.5°F27.5°C 59.9°F15.5°C 48% 2.2 mph NNW3.5 kmh NNW 11.4 mph18.3 kmh 30.45 in1031.2 mb 0.00 in0.0 mm 0.00 in0.0 mm 0.00 in0.0 mm
01:35 PM 81.7°F27.6°C 60.1°F15.6°C 48% 8.3 mph N13.4 kmh N 9.8 mph15.8 kmh 30.01 in1016.3 mb 0.00 in0.0 mm 0.00 in0.0 mm 0.00 in0.0 mm
01:45 PM 81.1°F27.3°C 61.8°F16.6°C 52% 3.8 mph NW6.1 kmh NW 10.7 mph17.2 kmh 30.45 in1031.2 mb 0.00 in0.0 mm 0.00 in0.0 mm 0.00 in0.0 mm
02:00 PM 81.3°F27.4°C 62.0°F16.7°C 52% 4.5 mph W7.2 kmh W 6.9 mph11.1 kmh 30.45 in1031.2 mb 0.00 in0.0 mm 0.00 in0.0 mm 0.00 in0.0 mm
02:05 PM 81.3°F27.4°C 62.6°F17.0°C 53% 3.8 mph SW6.1 kmh SW 5.4 mph8.7 kmh 30.01 in1016.3 mb 0.00 in0.0 mm 0.00 in0.0 mm 0.00 in0.0 mm
02:15 PM 81.0°F27.2°C 61.7°F16.5°C 52% 3.1 mph NNW5.0 kmh NNW 6.9 mph11.1 kmh 30.46 in1031.5 mb 0.00 in0.0 mm 0.00 in0.0 mm 0.00 in0.0 mm
02:30 PM 80.8°F27.1°C 61.5°F16.4°C 52% 3.8 mph NW6.1 kmh NW 8.3 mph13.4 kmh 30.46 in1031.5 mb 0.00 in0.0 mm 0.00 in0.0 mm 0.00 in0.0 mm
02:35 PM 81.0°F27.2°C 61.7°F16.5°C 52% 3.8 mph NW6.1 kmh NW 4.5 mph7.2 kmh 30.02 in1016.6 mb 0.00 in0.0 mm 0.00 in0.0 mm 0.00 in0.0 mm
02:45 PM 80.8°F27.1°C 61.5°F16.4°C 52% 3.1 mph W5.0 kmh W 7.6 mph12.2 kmh 30.47 in1031.8 mb 0.00 in0.0 mm 0.00 in0.0 mm 0.00 in0.0 mm
03:00 PM 81.5°F27.5°C 60.5°F15.8°C 49% 12.1 mph NNW19.5 kmh NNW 13.6 mph21.9 kmh 30.46 in1031.5 mb 0.00 in0.0 mm 0.00 in0.0 mm 0.00 in0.0 mm
03:05 PM 81.3°F27.4°C 62.0°F16.7°C 52% 6.9 mph NW11.1 kmh NW 8.3 mph13.4 kmh 30.02 in1016.6 mb 0.00 in0.0 mm 0.00 in0.0 mm 0.00 in0.0 mm
03:15 PM 80.8°F27.1°C 62.1°F16.7°C 53% 11.4 mph NNW18.3 kmh NNW 13.6 mph21.9 kmh 30.47 in1031.8 mb 0.00 in0.0 mm 0.00 in0.0 mm 0.00 in0.0 mm
03:30 PM 79.9°F26.6°C 62.3°F16.8°C 55% 10.7 mph NW17.2 kmh NW 15.9 mph25.6 kmh 30.47 in1031.8 mb 0.00 in0.0 mm 0.00 in0.0 mm 0.00 in0.0 mm
03:35 PM 80.1°F26.7°C 62.4°F16.9°C 55% 12.1 mph W19.5 kmh W 15.9 mph25.6 kmh 30.03 in1016.9 mb 0.00 in0.0 mm 0.00 in0.0 mm 0.00 in0.0 mm
03:45 PM 78.4°F25.8°C 61.4°F16.3°C 56% 7.6 mph NW12.2 kmh NW 13.0 mph20.9 kmh 30.48 in1032.2 mb 0.00 in0.0 mm 0.00 in0.0 mm 0.00 in0.0 mm
04:00 PM 77.4°F25.2°C 61.4°F16.3°C 58% 6.0 mph NW9.7 kmh NW 13.0 mph20.9 kmh 30.48 in1032.2 mb 0.00 in0.0 mm 0.00 in0.0 mm 0.00 in0.0 mm
04:05 PM 77.5°F25.3°C 61.1°F16.2°C 57% 9.2 mph NW14.8 kmh NW 10.7 mph17.2 kmh 30.04 in1017.3 mb 0.00 in0.0 mm 0.00 in0.0 mm 0.00 in0.0 mm
04:15 PM 76.5°F24.7°C 61.5°F16.4°C 60% 8.3 mph NW13.4 kmh NW 12.1 mph19.5 kmh 30.47 in1031.8 mb 0.00 in0.0 mm 0.00 in0.0 mm 0.00 in0.0 mm
04:30 PM 76.3°F24.6°C 61.4°F16.3°C 60% 4.5 mph NW7.2 kmh NW 11.4 mph18.3 kmh 30.48 in1032.2 mb 0.00 in0.0 mm 0.00 in0.0 mm 0.00 in0.0 mm
04:35 PM 76.3°F24.6°C 61.4°F16.3°C 60% 6.9 mph NW11.1 kmh NW 8.3 mph13.4 kmh 30.04 in1017.3 mb 0.00 in0.0 mm 0.00 in0.0 mm 0.00 in0.0 mm
04:45 PM 75.7°F24.3°C 60.9°F16.1°C 60% 6.0 mph NNW9.7 kmh NNW 13.6 mph21.9 kmh 30.48 in1032.2 mb 0.00 in0.0 mm 0.00 in0.0 mm 0.00 in0.0 mm
05:00 PM 75.2°F24.0°C 60.8°F16.0°C 61% 7.6 mph NW12.2 kmh NW 12.1 mph19.5 kmh 30.49 in1032.5 mb 0.00 in0.0 mm 0.00 in0.0 mm 0.00 in0.0 mm
05:05 PM 75.4°F24.1°C 61.0°F16.1°C 61% 7.6 mph NW12.2 kmh NW 9.8 mph15.8 kmh 30.04 in1017.3 mb 0.00 in0.0 mm 0.00 in0.0 mm 0.00 in0.0 mm
05:15 PM 72.0°F22.2°C 62.4°F16.9°C 72% 3.8 mph NNW6.1 kmh NNW 9.8 mph15.8 kmh 30.49 in1032.5 mb 0.04 in1.0 mm 0.24 in6.1 mm 0.04 in1.0 mm
05:30 PM 70.7°F21.5°C 63.5°F17.5°C 78% 4.5 mph N7.2 kmh N 5.4 mph8.7 kmh 30.48 in1032.2 mb 0.04 in1.0 mm 0.00 in0.0 mm 0.04 in1.0 mm
05:35 PM 70.9°F21.6°C 63.3°F17.4°C 77% 3.8 mph NW6.1 kmh NW 4.5 mph7.2 kmh 30.05 in1017.6 mb 0.04 in1.0 mm 0.00 in0.0 mm 0.04 in1.0 mm
05:45 PM 70.2°F21.2°C 64.1°F17.8°C 81% 4.5 mph NNW7.2 kmh NNW 6.9 mph11.1 kmh 30.50 in1032.8 mb 0.05 in1.3 mm 0.06 in1.5 mm 0.05 in1.3 mm
06:00 PM 70.0°F21.1°C 64.6°F18.1°C 83% 1.6 mph N2.6 kmh N 3.1 mph5.0 kmh 30.50 in1032.8 mb 0.05 in1.3 mm 0.00 in0.0 mm 0.05 in1.3 mm
06:05 PM 70.0°F21.1°C 64.6°F18.1°C 83% 1.6 mph N2.6 kmh N 2.2 mph3.5 kmh 30.05 in1017.6 mb 0.05 in1.3 mm 0.00 in0.0 mm 0.05 in1.3 mm
06:15 PM 69.8°F21.0°C 64.7°F18.2°C 84% Calm Calm 3.1 mph5.0 kmh 30.50 in1032.8 mb 0.01 in0.3 mm 0.00 in0.0 mm 0.05 in1.3 mm
06:30 PM 69.8°F21.0°C 65.8°F18.8°C 87% 0.7 mph N1.1 kmh N 1.6 mph2.6 kmh 30.50 in1032.8 mb 0.01 in0.3 mm 0.00 in0.0 mm 0.05 in1.3 mm
06:35 PM 69.8°F21.0°C 65.4°F18.6°C 86% 0.7 mph N1.1 kmh N 1.6 mph2.6 kmh 30.05 in1017.6 mb 0.01 in0.3 mm 0.00 in0.0 mm 0.05 in1.3 mm
06:45 PM 69.6°F20.9°C 65.9°F18.8°C 88% 1.6 mph N2.6 kmh N 2.2 mph3.5 kmh 30.50 in1032.8 mb 0.00 in0.0 mm 0.00 in0.0 mm 0.05 in1.3 mm
07:00 PM 69.1°F20.6°C 65.0°F18.3°C 87% 1.6 mph N2.6 kmh N 3.1 mph5.0 kmh 30.51 in1033.2 mb 0.00 in0.0 mm 0.00 in0.0 mm 0.05 in1.3 mm
07:05 PM 69.1°F20.6°C 65.0°F18.3°C 87% 1.6 mph N2.6 kmh N 2.2 mph3.5 kmh 30.07 in1018.3 mb 0.00 in0.0 mm 0.00 in0.0 mm 0.05 in1.3 mm
07:15 PM 68.9°F20.5°C 65.5°F18.6°C 89% 1.6 mph N2.6 kmh N 3.1 mph5.0 kmh 30.52 in1033.5 mb 0.00 in0.0 mm 0.00 in0.0 mm 0.05 in1.3 mm
07:30 PM 68.5°F20.3°C 65.2°F18.4°C 89% 1.6 mph N2.6 kmh N 2.2 mph3.5 kmh 30.52 in1033.5 mb 0.00 in0.0 mm 0.00 in0.0 mm 0.05 in1.3 mm
07:35 PM 68.7°F20.4°C 65.3°F18.5°C 89% 0.7 mph N1.1 kmh N 1.6 mph2.6 kmh 30.08 in1018.6 mb 0.00 in0.0 mm 0.00 in0.0 mm 0.05 in1.3 mm
07:45 PM 68.2°F20.1°C 64.5°F18.1°C 88% 3.8 mph NNW6.1 kmh NNW 5.4 mph8.7 kmh 30.52 in1033.5 mb 0.00 in0.0 mm 0.00 in0.0 mm 0.05 in1.3 mm
08:00 PM 68.0°F20.0°C 64.3°F17.9°C 88% 0.7 mph N1.1 kmh N 3.8 mph6.1 kmh 30.51 in1033.2 mb 0.00 in0.0 mm 0.00 in0.0 mm 0.05 in1.3 mm
08:05 PM 68.0°F20.0°C 64.3°F17.9°C 88% 3.1 mph N5.0 kmh N 3.8 mph6.1 kmh 30.08 in1018.6 mb 0.00 in0.0 mm 0.00 in0.0 mm 0.05 in1.3 mm
08:15 PM 67.8°F19.9°C 64.1°F17.8°C 88% 1.6 mph NNW2.6 kmh NNW 3.1 mph5.0 kmh 30.52 in1033.5 mb 0.00 in0.0 mm 0.00 in0.0 mm 0.05 in1.3 mm
08:30 PM 67.6°F19.8°C 64.0°F17.8°C 88% 1.6 mph NNW2.6 kmh NNW 2.2 mph3.5 kmh 30.52 in1033.5 mb 0.00 in0.0 mm 0.00 in0.0 mm 0.05 in1.3 mm
08:35 PM 67.6°F19.8°C 64.0°F17.8°C 88% Calm Calm 0.7 mph1.1 kmh 30.08 in1018.6 mb 0.00 in0.0 mm 0.00 in0.0 mm 0.05 in1.3 mm
08:45 PM 67.3°F19.6°C 63.6°F17.6°C 88% 1.6 mph N2.6 kmh N 3.1 mph5.0 kmh 30.52 in1033.5 mb 0.00 in0.0 mm 0.00 in0.0 mm 0.05 in1.3 mm
09:00 PM 66.9°F19.4°C 63.2°F17.3°C 88% 1.6 mph N2.6 kmh N 3.1 mph5.0 kmh 30.52 in1033.5 mb 0.00 in0.0 mm 0.00 in0.0 mm 0.05 in1.3 mm
09:05 PM 66.9°F19.4°C 63.2°F17.3°C 88% Calm Calm 0.7 mph1.1 kmh 30.08 in1018.6 mb 0.00 in0.0 mm 0.00 in0.0 mm 0.05 in1.3 mm
09:15 PM 66.7°F19.3°C 63.4°F17.4°C 89% Calm Calm 1.6 mph2.6 kmh 30.53 in1033.9 mb 0.00 in0.0 mm 0.00 in0.0 mm 0.05 in1.3 mm
09:30 PM 66.4°F19.1°C 63.0°F17.2°C 89% Calm Calm 2.2 mph3.5 kmh 30.53 in1033.9 mb 0.00 in0.0 mm 0.00 in0.0 mm 0.05 in1.3 mm
09:35 PM 66.4°F19.1°C 63.0°F17.2°C 89% Calm Calm 0.7 mph1.1 kmh 30.09 in1019.0 mb 0.00 in0.0 mm 0.00 in0.0 mm 0.05 in1.3 mm
09:45 PM 66.0°F18.9°C 62.7°F17.1°C 89% 0.7 mph NW1.1 kmh NW 1.6 mph2.6 kmh 30.53 in1033.9 mb 0.00 in0.0 mm 0.00 in0.0 mm 0.05 in1.3 mm
10:00 PM 65.8°F18.8°C 62.5°F16.9°C 89% Calm Calm 2.2 mph3.5 kmh 30.53 in1033.9 mb 0.00 in0.0 mm 0.00 in0.0 mm 0.05 in1.3 mm
10:05 PM 65.8°F18.8°C 62.5°F16.9°C 89% 0.7 mph NW1.1 kmh NW 1.6 mph2.6 kmh 30.09 in1019.0 mb 0.00 in0.0 mm 0.00 in0.0 mm 0.05 in1.3 mm
10:15 PM 65.5°F18.6°C 62.5°F16.9°C 90% Calm Calm 1.6 mph2.6 kmh 30.53 in1033.9 mb 0.00 in0.0 mm 0.00 in0.0 mm 0.05 in1.3 mm
10:30 PM 65.1°F18.4°C 62.1°F16.7°C 90% 0.7 mph NW1.1 kmh NW 2.2 mph3.5 kmh 30.53 in1033.9 mb 0.00 in0.0 mm 0.00 in0.0 mm 0.05 in1.3 mm
10:35 PM 65.1°F18.4°C 62.1°F16.7°C 90% 1.6 mph NW2.6 kmh NW 2.2 mph3.5 kmh 30.09 in1019.0 mb 0.00 in0.0 mm 0.00 in0.0 mm 0.05 in1.3 mm
10:45 PM 64.9°F18.3°C 61.9°F16.6°C 90% 0.7 mph NW1.1 kmh NW 2.2 mph3.5 kmh 30.54 in1034.2 mb 0.00 in0.0 mm 0.00 in0.0 mm 0.05 in1.3 mm
11:00 PM 64.6°F18.1°C 61.6°F16.4°C 90% Calm Calm 1.6 mph2.6 kmh 30.54 in1034.2 mb 0.00 in0.0 mm 0.00 in0.0 mm 0.05 in1.3 mm
11:05 PM 64.6°F18.1°C 61.6°F16.4°C 90% Calm Calm 0.7 mph1.1 kmh 30.10 in1019.3 mb 0.00 in0.0 mm 0.00 in0.0 mm 0.05 in1.3 mm
11:15 PM 64.4°F18.0°C 61.4°F16.3°C 90% Calm Calm 0.7 mph1.1 kmh 30.54 in1034.2 mb 0.00 in0.0 mm 0.00 in0.0 mm 0.05 in1.3 mm
11:30 PM 64.0°F17.8°C 61.0°F16.1°C 90% 1.6 mph NW2.6 kmh NW 3.1 mph5.0 kmh 30.54 in1034.2 mb 0.00 in0.0 mm 0.00 in0.0 mm 0.05 in1.3 mm
11:35 PM 64.0°F17.8°C 61.0°F16.1°C 90% 2.2 mph NW3.5 kmh NW 3.1 mph5.0 kmh 30.10 in1019.3 mb 0.00 in0.0 mm 0.00 in0.0 mm 0.05 in1.3 mm
11:45 PM 63.9°F17.7°C 61.2°F16.2°C 91% 1.6 mph NW2.6 kmh NW 3.8 mph6.1 kmh 30.55 in1034.5 mb 0.00 in0.0 mm 0.00 in0.0 mm 0.05 in1.3 mm